createdAt,value
2022-10-08T00:01:06.310Z,2.97
2022-10-08T00:03:56.273Z,2.85
2022-10-08T00:06:45.925Z,2.75
2022-10-08T00:09:34.576Z,2.78
2022-10-08T00:12:23.505Z,3.08
2022-10-08T00:15:11.661Z,3.78
2022-10-08T00:17:59.667Z,3.10
2022-10-08T00:20:48.240Z,2.78
2022-10-08T00:23:36.372Z,2.95
2022-10-08T00:26:26.957Z,2.72
2022-10-08T00:29:17.313Z,3.20
2022-10-08T00:32:07.246Z,2.97
2022-10-08T00:34:55.348Z,2.65
2022-10-08T00:37:43.052Z,3.17
2022-10-08T00:40:31.295Z,2.78
2022-10-08T00:43:36.675Z,2.85
2022-10-08T00:46:31.336Z,2.80
2022-10-08T00:49:22.673Z,2.97
2022-10-08T00:52:10.595Z,2.83
2022-10-08T00:54:58.947Z,3.20
2022-10-08T00:57:47.209Z,2.92
2022-10-08T01:00:35.718Z,3.10
2022-10-08T01:03:24.274Z,2.47
2022-10-08T01:06:27.007Z,2.40
2022-10-08T01:09:24.502Z,2.95
2022-10-08T01:12:50.985Z,2.10
2022-10-08T01:15:52.900Z,1.80
2022-10-08T01:19:00.272Z,2.22
2022-10-08T01:22:13.383Z,2.17
2022-10-08T01:25:33.840Z,2.47
2022-10-08T01:28:51.611Z,3.15
2022-10-08T01:31:48.015Z,2.85
2022-10-08T01:34:44.418Z,2.50
2022-10-08T01:37:40.182Z,2.70
2022-10-08T01:40:36.486Z,2.37
2022-10-08T01:46:26.429Z,2.65
2022-10-08T01:49:20.545Z,2.55
2022-10-08T01:52:14.908Z,2.60
2022-10-08T01:55:07.148Z,2.20
2022-10-08T01:58:00.964Z,2.65
2022-10-08T02:00:51.292Z,2.60
2022-10-08T02:03:59.372Z,1.77
2022-10-08T02:06:55.515Z,2.50
2022-10-08T02:10:01.453Z,2.63
2022-10-08T02:12:52.114Z,2.72
2022-10-08T02:16:29.699Z,2.20
2022-10-08T02:20:18.456Z,2.95
2022-10-08T02:24:00.530Z,2.15
2022-10-08T02:36:31.349Z,2.20
2022-10-08T02:39:21.593Z,2.00
2022-10-08T02:42:14.664Z,2.13
2022-10-08T02:45:09.250Z,2.65
2022-10-08T02:52:12.401Z,2.40
2022-10-08T02:55:02.489Z,2.38
2022-10-08T02:58:01.279Z,2.72
2022-10-08T03:01:44.124Z,2.33
2022-10-08T03:04:34.642Z,2.60
2022-10-08T03:07:24.680Z,2.28
2022-10-08T03:10:13.690Z,1.92
2022-10-08T03:13:02.797Z,2.35
2022-10-08T03:15:54.044Z,2.42
2022-10-08T03:18:43.478Z,2.40
2022-10-08T03:21:32.473Z,2.83
2022-10-08T03:24:20.295Z,2.10
2022-10-08T03:33:21.380Z,2.50
2022-10-08T03:35:52.704Z,2.03
2022-10-08T03:38:52.127Z,2.13
2022-10-08T03:41:42.529Z,2.38
2022-10-08T03:44:30.669Z,2.17
2022-10-08T03:47:21.410Z,1.95
2022-10-08T03:50:18.837Z,2.38
2022-10-08T03:54:07.012Z,2.50
2022-10-08T03:56:52.913Z,3.10
2022-10-08T03:59:52.566Z,2.60
2022-10-08T04:03:09.695Z,2.20
2022-10-08T04:06:23.417Z,2.80
2022-10-08T04:37:01.375Z,2.90
2022-10-08T04:39:59.852Z,2.60
2022-10-08T04:42:52.193Z,2.75
2022-10-08T04:45:45.266Z,2.28
2022-10-08T04:48:33.633Z,2.17
2022-10-08T04:51:26.023Z,2.75
2022-10-08T04:54:13.858Z,2.50
2022-10-08T04:57:02.035Z,2.63
2022-10-08T05:00:13.589Z,2.83
2022-10-08T05:02:57.610Z,2.67
2022-10-08T05:05:46.333Z,2.60
2022-10-08T05:08:34.534Z,3.20
2022-10-08T05:11:27.126Z,2.50
2022-10-08T05:14:15.233Z,2.08
2022-10-08T05:17:03.207Z,2.20
2022-10-08T05:19:51.005Z,2.17
2022-10-08T05:22:39.097Z,2.25
2022-10-08T05:25:26.917Z,2.17
2022-10-08T05:28:16.598Z,2.38
2022-10-08T05:31:04.623Z,2.50
2022-10-08T05:33:53.327Z,2.85
2022-10-08T05:36:41.988Z,2.38
2022-10-08T05:39:29.626Z,2.55
2022-10-08T05:42:17.524Z,2.50
2022-10-08T05:45:07.303Z,3.67
2022-10-08T05:47:58.182Z,2.60
2022-10-08T05:50:46.279Z,2.50
2022-10-08T05:53:47.836Z,2.70
2022-10-08T05:56:35.838Z,2.30
2022-10-08T05:59:24.700Z,2.70
2022-10-08T06:02:13.373Z,2.47
2022-10-08T06:05:01.220Z,2.60
2022-10-08T06:07:52.984Z,2.60
2022-10-08T06:10:49.443Z,2.22
2022-10-08T06:16:25.970Z,2.45
2022-10-08T06:19:16.973Z,2.67
2022-10-08T06:22:05.142Z,2.67
2022-10-08T06:24:53.309Z,2.90
2022-10-08T06:27:41.164Z,2.72
2022-10-08T06:30:28.807Z,2.42
2022-10-08T06:33:17.012Z,2.95
2022-10-08T06:36:17.856Z,3.20
2022-10-08T06:39:12.760Z,2.60
2022-10-08T06:42:00.597Z,2.80
2022-10-08T06:45:01.382Z,2.88
2022-10-08T06:47:52.966Z,2.53
2022-10-08T06:50:42.153Z,2.55
2022-10-08T06:53:30.333Z,2.65
2022-10-08T06:56:18.286Z,2.42
2022-10-08T06:59:10.174Z,3.42
2022-10-08T07:01:58.191Z,2.50
2022-10-08T07:04:45.866Z,2.60
2022-10-08T07:07:33.728Z,2.50
2022-10-08T07:10:22.038Z,2.33
2022-10-08T07:13:09.797Z,2.05
2022-10-08T07:16:08.200Z,1.80
2022-10-08T07:18:58.624Z,2.10
2022-10-08T07:21:47.635Z,2.40
2022-10-08T07:24:35.530Z,2.30
2022-10-08T07:27:23.721Z,2.90
2022-10-08T07:30:12.073Z,2.58
2022-10-08T07:33:09.477Z,2.40
2022-10-08T07:36:10.866Z,2.17
2022-10-08T07:39:02.697Z,2.58
2022-10-08T07:41:53.204Z,2.80
2022-10-08T07:44:41.330Z,1.95
2022-10-08T07:47:30.035Z,2.50
2022-10-08T07:50:17.716Z,2.47
2022-10-08T07:53:06.400Z,2.60
2022-10-08T07:55:58.168Z,2.33
2022-10-08T07:58:49.707Z,2.17
2022-10-08T08:05:10.319Z,1.90
2022-10-08T08:07:58.382Z,2.20
2022-10-08T08:10:49.657Z,2.30
2022-10-08T08:13:40.037Z,2.25
2022-10-08T08:16:40.896Z,2.00
2022-10-08T08:19:42.167Z,2.53
2022-10-08T08:22:35.440Z,1.73
2022-10-08T08:25:23.101Z,2.58
2022-10-08T08:28:25.205Z,2.42
2022-10-08T08:31:22.288Z,1.90
2022-10-08T08:34:30.308Z,2.15
2022-10-08T08:37:18.240Z,1.75
2022-10-08T08:40:06.900Z,2.10
2022-10-08T08:43:01.049Z,1.90
2022-10-08T08:45:49.599Z,2.20
2022-10-08T08:48:40.302Z,1.77
2022-10-08T08:51:28.532Z,1.98
2022-10-08T08:54:16.542Z,2.00
2022-10-08T08:57:24.472Z,2.40
2022-10-08T09:00:17.533Z,3.05
2022-10-08T09:03:10.811Z,2.15
2022-10-08T09:06:05.943Z,1.60
2022-10-08T09:09:01.504Z,1.80
2022-10-08T09:12:18.608Z,1.75
2022-10-08T09:15:26.092Z,2.15
2022-10-08T09:18:20.739Z,2.25
2022-10-08T09:21:08.730Z,2.42
2022-10-08T09:23:56.658Z,2.45
2022-10-08T09:26:44.338Z,2.03
2022-10-08T09:29:37.752Z,2.03
2022-10-08T09:32:25.726Z,1.50
2022-10-08T09:35:16.101Z,1.85
2022-10-08T09:38:06.091Z,2.13
2022-10-08T09:41:03.442Z,1.75
2022-10-08T09:44:08.523Z,1.77
2022-10-08T09:47:09.450Z,2.42
2022-10-08T09:50:21.680Z,2.25
2022-10-08T09:53:10.537Z,1.70
2022-10-08T09:56:04.616Z,1.58
2022-10-08T09:58:58.995Z,1.65
2022-10-08T10:01:48.254Z,2.33
2022-10-08T10:04:38.574Z,2.90
2022-10-08T10:07:40.366Z,1.88
2022-10-08T10:10:34.634Z,2.13
2022-10-08T10:13:35.245Z,2.25
2022-10-08T10:16:34.201Z,2.30
2022-10-08T10:19:30.568Z,2.00
2022-10-08T10:22:27.202Z,2.38
2022-10-08T10:25:37.110Z,2.10
2022-10-08T10:28:46.130Z,2.15
2022-10-08T10:31:39.709Z,1.92
2022-10-08T10:34:30.585Z,2.00
2022-10-08T10:37:31.510Z,2.20
2022-10-08T10:41:00.927Z,2.05
2022-10-08T10:44:00.752Z,1.70
2022-10-08T10:46:57.212Z,1.92
2022-10-08T10:49:45.092Z,2.45
2022-10-08T10:53:09.891Z,2.60
2022-10-08T10:56:15.917Z,2.50
2022-10-08T10:59:25.327Z,2.28
2022-10-08T11:02:21.423Z,2.20
2022-10-08T11:05:25.633Z,2.38
2022-10-08T11:08:38.491Z,2.20
2022-10-08T11:11:41.006Z,2.97
2022-10-08T11:14:34.869Z,3.00
2022-10-08T11:17:40.786Z,2.95
2022-10-08T11:20:39.869Z,3.30
2022-10-08T11:23:58.734Z,2.10
2022-10-08T11:27:04.910Z,2.22
2022-10-08T11:30:15.678Z,2.22
2022-10-08T11:33:05.890Z,2.85
2022-10-08T11:36:15.232Z,2.97
2022-10-08T11:39:20.054Z,2.10
2022-10-08T11:42:24.370Z,2.63
2022-10-08T11:45:15.189Z,2.10
2022-10-08T11:48:31.708Z,2.25
2022-10-08T11:51:19.668Z,2.20
2022-10-08T11:54:15.474Z,2.60
2022-10-08T11:57:18.924Z,2.28
2022-10-08T12:00:33.136Z,2.00
2022-10-08T12:03:32.038Z,2.30
2022-10-08T12:06:26.811Z,2.40
2022-10-08T12:09:25.188Z,2.40
2022-10-08T12:12:14.335Z,2.53
2022-10-08T12:15:02.248Z,2.25
2022-10-08T12:18:25.797Z,3.08
2022-10-08T12:21:17.096Z,3.30
2022-10-08T12:24:39.620Z,2.65
2022-10-08T12:27:30.344Z,2.53
2022-10-08T12:30:18.139Z,2.22
2022-10-08T12:33:09.298Z,2.35
2022-10-08T12:36:12.549Z,2.10
2022-10-08T12:39:06.340Z,4.60
2022-10-08T12:42:08.298Z,3.70
2022-10-08T12:45:18.627Z,4.10
2022-10-08T12:48:17.350Z,2.63
2022-10-08T12:51:17.579Z,3.15
2022-10-08T12:54:05.491Z,3.00
2022-10-08T12:56:53.964Z,3.28
2022-10-08T12:59:42.480Z,2.45
2022-10-08T13:02:38.413Z,2.78
2022-10-08T13:05:27.541Z,2.60
2022-10-08T13:08:37.336Z,2.05
2022-10-08T13:11:27.581Z,2.72
2022-10-08T13:14:37.649Z,2.38
2022-10-08T13:17:30.603Z,2.60
2022-10-08T13:20:22.625Z,2.63
2022-10-08T13:23:45.717Z,2.55
2022-10-08T13:26:50.495Z,2.58
2022-10-08T13:29:38.716Z,2.95
2022-10-08T13:32:30.095Z,1.98
2022-10-08T13:35:24.261Z,2.83
2022-10-08T13:38:21.287Z,2.30
2022-10-08T13:41:09.817Z,2.53
2022-10-08T13:43:58.382Z,2.40
2022-10-08T13:46:46.073Z,2.30
2022-10-08T13:49:34.298Z,2.42
2022-10-08T13:52:24.740Z,2.22
2022-10-08T13:55:28.165Z,2.30
2022-10-08T13:58:18.405Z,2.30
2022-10-08T14:01:06.486Z,2.58
2022-10-08T14:03:54.115Z,2.40
2022-10-08T14:06:44.844Z,2.40
2022-10-08T14:09:32.504Z,2.15
2022-10-08T14:12:26.365Z,2.83
2022-10-08T14:15:16.307Z,2.35
2022-10-08T14:18:04.731Z,2.17
2022-10-08T14:20:52.433Z,2.25
2022-10-08T14:23:40.534Z,2.67
2022-10-08T14:26:28.799Z,2.47
2022-10-08T14:29:16.737Z,2.55
2022-10-08T14:32:05.863Z,3.03
2022-10-08T14:34:53.872Z,2.30
2022-10-08T14:37:41.843Z,2.30
2022-10-08T14:40:29.444Z,2.35
2022-10-08T14:43:17.639Z,2.95
2022-10-08T14:46:05.403Z,3.05
2022-10-08T14:48:53.658Z,2.67
2022-10-08T14:51:42.222Z,3.72
2022-10-08T14:54:29.878Z,2.53
2022-10-08T14:57:17.840Z,2.90
2022-10-08T15:00:06.557Z,3.17
2022-10-08T15:02:54.968Z,3.00
2022-10-08T15:05:43.041Z,2.75
2022-10-08T15:08:30.939Z,3.92
2022-10-08T15:11:18.547Z,3.40
2022-10-08T15:14:06.724Z,3.22
2022-10-08T15:16:54.800Z,3.42
2022-10-08T15:19:42.512Z,3.22
2022-10-08T15:22:30.550Z,3.08
2022-10-08T15:25:18.706Z,3.08
2022-10-08T15:28:06.454Z,3.05
2022-10-08T15:31:06.035Z,3.53
2022-10-08T15:33:56.228Z,3.10
2022-10-08T15:36:45.360Z,3.85
2022-10-08T15:39:35.943Z,3.50
2022-10-08T15:42:24.205Z,3.28
2022-10-08T15:45:12.188Z,3.95
2022-10-08T15:48:00.269Z,3.13
2022-10-08T15:50:57.581Z,4.45
2022-10-08T15:53:45.710Z,2.90
2022-10-08T15:56:33.907Z,3.10
2022-10-08T15:59:21.920Z,3.88
2022-10-08T16:02:17.190Z,3.70
2022-10-08T16:05:06.247Z,3.45
2022-10-08T16:08:01.927Z,3.10
2022-10-08T16:10:49.523Z,3.58
2022-10-08T16:13:37.728Z,3.17
2022-10-08T16:16:26.054Z,3.38
2022-10-08T16:19:16.906Z,3.13
2022-10-08T16:22:05.447Z,3.20
2022-10-08T16:24:53.529Z,3.17
2022-10-08T16:27:43.852Z,3.70
2022-10-08T16:30:34.545Z,2.97
2022-10-08T16:33:22.693Z,3.00
2022-10-08T16:36:12.097Z,3.08
2022-10-08T16:39:00.497Z,3.10
2022-10-08T16:41:49.380Z,2.83
2022-10-08T16:44:37.414Z,3.20
2022-10-08T16:47:25.340Z,3.03
2022-10-08T16:50:15.712Z,3.83
2022-10-08T16:53:03.959Z,3.75
2022-10-08T16:55:52.158Z,4.40
2022-10-08T17:03:29.126Z,2.97
2022-10-08T17:06:48.083Z,2.88
2022-10-08T17:10:14.901Z,3.70
2022-10-08T17:13:05.572Z,3.20
2022-10-08T17:16:01.957Z,3.45
2022-10-08T17:18:57.420Z,3.95
2022-10-08T17:21:52.795Z,3.65
2022-10-08T17:24:46.642Z,3.58
2022-10-08T17:30:40.107Z,2.95
2022-10-08T17:33:35.768Z,3.60
2022-10-08T17:36:51.471Z,3.60
2022-10-08T17:39:43.128Z,3.13
2022-10-08T17:42:32.157Z,3.70
2022-10-08T17:45:28.304Z,2.72
2022-10-08T17:48:18.736Z,3.00
2022-10-08T17:51:15.372Z,3.25
2022-10-08T17:56:55.710Z,3.08
2022-10-08T17:59:44.228Z,3.60
2022-10-08T18:02:39.723Z,3.58
2022-10-08T18:05:34.667Z,2.78
2022-10-08T18:09:11.142Z,3.58
2022-10-08T18:11:59.131Z,4.28
2022-10-08T18:14:48.041Z,3.53
2022-10-08T18:17:36.192Z,3.40
2022-10-08T18:20:24.120Z,3.25
2022-10-08T18:23:13.767Z,3.30
2022-10-08T18:26:18.229Z,3.30
2022-10-08T18:29:09.200Z,3.40
2022-10-08T18:31:57.281Z,3.65
2022-10-08T18:34:45.258Z,3.70
2022-10-08T18:37:33.262Z,3.00
2022-10-08T18:40:21.359Z,3.13
2022-10-08T18:43:09.133Z,3.15
2022-10-08T18:45:56.786Z,2.80
2022-10-08T18:48:45.301Z,2.83
2022-10-08T18:51:34.393Z,2.97
2022-10-08T18:54:22.565Z,2.95
2022-10-08T18:57:10.253Z,3.60
2022-10-08T19:00:04.743Z,4.47
2022-10-08T19:02:57.871Z,5.80
2022-10-08T19:08:49.469Z,3.53
2022-10-08T19:11:44.608Z,3.60
2022-10-08T19:14:33.013Z,3.17
2022-10-08T19:17:25.613Z,3.15
2022-10-08T19:20:33.360Z,2.60
2022-10-08T19:23:21.221Z,3.10
2022-10-08T19:29:59.728Z,3.25
2022-10-08T19:30:23.899Z,3.00
2022-10-08T19:34:15.310Z,2.90
2022-10-08T19:37:04.565Z,2.90
2022-10-08T19:40:07.344Z,2.70
2022-10-08T19:46:30.463Z,2.72
2022-10-08T19:49:27.917Z,2.92
2022-10-08T19:52:17.426Z,3.35
2022-10-08T19:55:07.177Z,3.90
2022-10-08T19:57:59.204Z,2.90
2022-10-08T20:00:47.283Z,3.20
2022-10-08T20:03:39.917Z,3.08
2022-10-08T20:06:31.891Z,2.75
2022-10-08T20:10:02.311Z,3.25
2022-10-08T20:12:51.080Z,2.90
2022-10-08T20:15:40.071Z,3.50
2022-10-08T20:18:28.513Z,3.25
2022-10-08T20:21:17.075Z,3.10
2022-10-08T20:24:13.629Z,2.95
2022-10-08T20:30:06.884Z,2.63
2022-10-08T20:32:55.078Z,2.90
2022-10-08T20:35:43.130Z,3.08
2022-10-08T20:38:31.008Z,4.00
2022-10-08T20:41:19.570Z,3.50
2022-10-08T20:44:08.400Z,3.17
2022-10-08T20:46:56.857Z,2.83
2022-10-08T20:49:45.763Z,3.42
2022-10-08T20:52:33.780Z,3.22
2022-10-08T20:55:22.103Z,2.92
2022-10-08T20:58:09.954Z,3.40
2022-10-08T21:01:22.180Z,3.05
2022-10-08T21:04:10.309Z,2.97
2022-10-08T21:06:58.797Z,3.30
2022-10-08T21:09:46.782Z,2.75
2022-10-08T21:12:34.671Z,2.75
2022-10-08T21:15:22.540Z,2.30
2022-10-08T21:18:10.448Z,2.58
2022-10-08T21:21:06.539Z,2.80
2022-10-08T21:23:54.543Z,2.77
2022-10-08T21:26:42.749Z,2.90
2022-10-08T21:29:30.736Z,2.80
2022-10-08T21:32:18.747Z,2.53
2022-10-08T21:35:06.916Z,3.05
2022-10-08T21:37:54.734Z,2.97
2022-10-08T21:40:43.096Z,2.75
2022-10-08T21:43:31.645Z,3.20
2022-10-08T21:46:26.387Z,2.53
2022-10-08T21:49:20.967Z,3.30
2022-10-08T21:52:08.721Z,3.03
2022-10-08T21:54:56.903Z,3.25
2022-10-08T21:57:44.897Z,2.70
2022-10-08T22:00:34.272Z,2.92
2022-10-08T22:03:23.191Z,2.80
2022-10-08T22:06:11.520Z,3.00
2022-10-08T22:09:00.154Z,2.42
2022-10-08T22:11:49.145Z,2.95
2022-10-08T22:14:37.121Z,3.13
2022-10-08T22:17:25.427Z,3.03
2022-10-08T22:20:13.265Z,3.17
2022-10-08T22:23:01.033Z,3.00
2022-10-08T22:26:05.989Z,2.63
2022-10-08T22:28:54.041Z,2.65
2022-10-08T22:31:42.100Z,2.88
2022-10-08T22:34:30.166Z,2.70
2022-10-08T22:37:18.142Z,2.72
2022-10-08T22:40:06.671Z,2.78
2022-10-08T22:42:54.723Z,3.00
2022-10-08T22:45:42.986Z,2.70
2022-10-08T22:48:31.839Z,3.10
2022-10-08T22:51:24.747Z,2.90
2022-10-08T22:54:12.855Z,2.92
2022-10-08T22:57:00.898Z,2.33
2022-10-08T22:59:49.083Z,2.80
2022-10-08T23:02:37.318Z,2.58
2022-10-08T23:05:25.414Z,2.38
2022-10-08T23:08:13.064Z,2.58
2022-10-08T23:11:02.236Z,2.33
2022-10-08T23:13:54.627Z,2.13
2022-10-08T23:16:42.558Z,2.47
2022-10-08T23:19:30.761Z,2.70
2022-10-08T23:22:19.112Z,2.38
2022-10-08T23:25:07.694Z,2.38
2022-10-08T23:27:56.637Z,2.58
2022-10-08T23:30:44.494Z,3.15
2022-10-08T23:33:32.653Z,3.00
2022-10-08T23:36:33.327Z,2.53
2022-10-08T23:39:21.910Z,2.42
2022-10-08T23:42:10.078Z,2.33
2022-10-08T23:44:58.322Z,2.70
2022-10-08T23:47:46.123Z,3.10
2022-10-08T23:50:38.198Z,2.75
2022-10-08T23:53:26.003Z,3.03
2022-10-08T23:56:15.200Z,2.70
2022-10-08T23:59:03.580Z,2.78
